createdAt,value
2019-02-21T00:00:01.797Z,4.08
2019-02-21T00:01:01.787Z,4.00
2019-02-21T00:02:01.777Z,3.98
2019-02-21T00:03:01.781Z,4.04
2019-02-21T00:04:01.780Z,4.00
2019-02-21T00:05:01.782Z,3.97
2019-02-21T00:06:01.748Z,3.93
2019-02-21T00:07:01.724Z,3.86
2019-02-21T00:08:01.712Z,3.87
2019-02-21T00:09:01.756Z,3.84
2019-02-21T00:10:01.691Z,3.80
2019-02-21T00:11:01.684Z,3.75
2019-02-21T00:12:01.667Z,3.76
2019-02-21T00:13:01.663Z,3.73
2019-02-21T00:14:01.672Z,3.79
2019-02-21T00:15:01.641Z,3.69
2019-02-21T00:16:01.629Z,3.73
2019-02-21T00:17:01.633Z,3.84
2019-02-21T00:18:01.601Z,3.70
2019-02-21T00:19:01.615Z,3.79
2019-02-21T00:20:01.585Z,3.78
2019-02-21T00:21:01.569Z,3.80
2019-02-21T00:22:01.558Z,3.75
2019-02-21T00:23:01.547Z,3.72
2019-02-21T00:24:01.556Z,3.83
2019-02-21T00:25:01.530Z,3.79
2019-02-21T00:26:01.561Z,3.76
2019-02-21T00:27:01.506Z,3.87
2019-02-21T00:28:01.503Z,3.83
2019-02-21T00:29:01.503Z,3.83
2019-02-21T00:30:01.502Z,3.83
2019-02-21T00:31:01.467Z,3.86
2019-02-21T00:32:01.451Z,3.80
2019-02-21T00:33:01.438Z,3.94
2019-02-21T00:34:01.435Z,3.90
2019-02-21T00:35:01.454Z,3.87
2019-02-21T00:36:01.413Z,3.93
2019-02-21T00:37:01.401Z,3.96
2019-02-21T00:38:01.384Z,3.93
2019-02-21T00:39:01.377Z,3.83
2019-02-21T00:40:01.381Z,3.93
2019-02-21T00:41:01.353Z,3.80
2019-02-21T00:42:01.341Z,3.86
2019-02-21T00:43:01.325Z,3.83
2019-02-21T00:44:01.320Z,3.88
2019-02-21T00:45:01.343Z,3.83
2019-02-21T00:46:01.299Z,3.76
2019-02-21T00:47:01.282Z,3.76
2019-02-21T00:48:01.285Z,3.84
2019-02-21T00:49:01.270Z,3.75
2019-02-21T00:50:01.280Z,3.76
2019-02-21T00:51:01.243Z,3.75
2019-02-21T00:52:02.810Z,3.70
2019-02-21T00:53:01.219Z,3.73
2019-02-21T00:54:01.211Z,3.78
2019-02-21T00:55:01.252Z,3.70
2019-02-21T00:56:01.190Z,3.68
2019-02-21T00:57:01.173Z,3.61
2019-02-21T00:58:01.162Z,3.60
2019-02-21T00:59:01.152Z,3.52
2019-02-21T01:00:01.150Z,3.47
2019-02-21T01:01:01.154Z,3.32
2019-02-21T01:02:01.128Z,3.35
2019-02-21T01:03:01.108Z,3.32
2019-02-21T01:04:01.102Z,3.23
2019-02-21T01:05:01.090Z,3.26
2019-02-21T01:06:01.107Z,3.24
2019-02-21T01:07:01.074Z,3.33
2019-02-21T01:08:01.055Z,3.32
2019-02-21T01:09:01.042Z,3.18
2019-02-21T01:10:01.037Z,3.24
2019-02-21T01:11:01.040Z,3.17
2019-02-21T01:12:01.018Z,3.20
2019-02-21T01:13:01.010Z,3.24
2019-02-21T01:14:00.988Z,3.20
2019-02-21T01:15:00.977Z,3.18
2019-02-21T01:16:00.996Z,3.24
2019-02-21T01:17:00.955Z,3.18
2019-02-21T01:18:00.942Z,3.17
2019-02-21T01:19:00.940Z,3.18
2019-02-21T01:20:00.924Z,3.14
2019-02-21T01:21:00.928Z,3.18
2019-02-21T01:22:00.918Z,3.15
2019-02-21T01:23:00.889Z,3.05
2019-02-21T01:24:00.883Z,3.13
2019-02-21T01:25:00.868Z,3.08
2019-02-21T01:26:00.863Z,3.13
2019-02-21T01:27:00.875Z,3.08
2019-02-21T01:28:00.832Z,3.11
2019-02-21T01:29:00.823Z,3.11
2019-02-21T01:30:00.818Z,3.13
2019-02-21T01:31:00.828Z,3.10
2019-02-21T01:32:00.811Z,3.11
2019-02-21T01:33:00.784Z,3.11
2019-02-21T01:34:00.773Z,3.13
2019-02-21T01:35:00.759Z,3.08
2019-02-21T01:36:00.751Z,3.10
2019-02-21T01:37:00.754Z,3.08
2019-02-21T01:38:00.730Z,2.96
2019-02-21T01:39:00.716Z,3.06
2019-02-21T01:40:00.709Z,3.02
2019-02-21T01:41:00.692Z,3.11
2019-02-21T01:42:00.699Z,3.00
2019-02-21T01:43:00.686Z,3.00
2019-02-21T01:44:00.661Z,3.03
2019-02-21T01:45:00.651Z,2.93
2019-02-21T01:46:00.646Z,2.85
2019-02-21T01:47:00.634Z,2.82
2019-02-21T01:48:00.648Z,2.78
2019-02-21T01:49:00.604Z,2.78
2019-02-21T01:50:00.593Z,2.71
2019-02-21T01:51:00.587Z,2.69
2019-02-21T01:52:00.579Z,2.66
2019-02-21T01:53:00.587Z,2.63
2019-02-21T01:54:00.549Z,2.60
2019-02-21T01:55:00.538Z,2.56
2019-02-21T01:56:00.530Z,2.59
2019-02-21T01:57:00.550Z,2.59
2019-02-21T01:58:00.507Z,2.56
2019-02-21T01:59:00.503Z,2.46
2019-02-21T02:00:00.490Z,2.53
2019-02-21T02:01:07.930Z,2.52
2019-02-21T02:02:01.520Z,2.54
2019-02-21T02:03:00.459Z,2.46
2019-02-21T02:04:00.440Z,2.52
2019-02-21T02:05:00.532Z,2.49
2019-02-21T02:06:00.421Z,2.56
2019-02-21T02:07:00.413Z,2.56
2019-02-21T02:08:00.424Z,2.60
2019-02-21T02:09:00.387Z,2.60
2019-02-21T02:10:00.384Z,2.64
2019-02-21T02:11:00.363Z,2.69
2019-02-21T02:12:00.354Z,2.69
2019-02-21T02:13:00.346Z,2.75
2019-02-21T02:14:00.353Z,2.75
2019-02-21T02:15:00.330Z,2.74
2019-02-21T02:16:00.330Z,2.77
2019-02-21T02:17:00.304Z,2.72
2019-02-21T02:18:00.311Z,2.74
2019-02-21T02:19:00.294Z,2.72
2019-02-21T02:20:00.366Z,2.72
2019-02-21T02:21:00.254Z,2.72
2019-02-21T02:22:00.247Z,2.66
2019-02-21T02:23:00.235Z,2.71
2019-02-21T02:24:00.241Z,2.64
2019-02-21T02:25:00.325Z,2.61
2019-02-21T02:26:00.202Z,2.59
2019-02-21T02:27:00.188Z,2.56
2019-02-21T02:28:00.178Z,2.60
2019-02-21T02:29:00.195Z,2.60
2019-02-21T02:30:00.394Z,2.59
2019-02-21T02:31:00.145Z,2.64
2019-02-21T02:32:00.132Z,2.63
2019-02-21T02:33:00.121Z,2.66
2019-02-21T02:34:00.130Z,2.63
2019-02-21T02:35:00.181Z,2.56
2019-02-21T02:36:00.093Z,2.56
2019-02-21T02:37:00.083Z,2.53
2019-02-21T02:38:00.066Z,2.52
2019-02-21T02:39:00.080Z,2.52
2019-02-21T02:40:00.052Z,2.60
2019-02-21T02:41:00.046Z,2.54
2019-02-21T02:42:00.021Z,2.64
2019-02-21T02:43:00.016Z,2.53
2019-02-21T02:44:00.015Z,2.56
2019-02-21T02:44:59.999Z,2.56
2019-02-21T02:45:59.988Z,2.61
2019-02-21T02:46:59.977Z,2.53
2019-02-21T02:47:59.957Z,2.59
2019-02-21T02:48:59.965Z,2.63
2019-02-21T02:49:59.952Z,2.57
2019-02-21T02:50:59.926Z,2.59
2019-02-21T02:51:59.912Z,2.63
2019-02-21T02:52:59.909Z,2.59
2019-02-21T02:53:59.896Z,2.63
2019-02-21T02:54:59.899Z,2.57
2019-02-21T02:55:59.873Z,2.63
2019-02-21T02:56:59.915Z,2.53
2019-02-21T02:57:59.847Z,2.52
2019-02-21T02:58:59.838Z,2.49
2019-02-21T02:59:59.854Z,2.64
2019-02-21T03:00:59.937Z,2.54
2019-02-21T03:01:59.811Z,2.63
2019-02-21T03:02:59.801Z,2.57
2019-02-21T03:03:59.782Z,2.61
2019-02-21T03:04:59.786Z,2.60
2019-02-21T03:05:59.765Z,2.60
2019-02-21T03:06:59.759Z,2.63
2019-02-21T03:07:59.738Z,2.64
2019-02-21T03:08:59.728Z,2.67
2019-02-21T03:09:59.752Z,2.78
2019-02-21T03:10:59.707Z,2.71
2019-02-21T03:11:59.693Z,2.74
2019-02-21T03:12:59.689Z,2.79
2019-02-21T03:13:59.674Z,2.74
2019-02-21T03:14:59.676Z,2.84
2019-02-21T03:15:59.673Z,2.89
2019-02-21T03:16:59.645Z,2.82
2019-02-21T03:17:59.636Z,2.90
2019-02-21T03:18:59.618Z,2.82
2019-02-21T03:19:59.625Z,2.85
2019-02-21T03:20:59.612Z,2.87
2019-02-21T03:21:59.586Z,3.00
2019-02-21T03:22:59.574Z,2.90
2019-02-21T03:23:59.563Z,2.93
2019-02-21T03:24:59.553Z,2.96
2019-02-21T03:25:59.555Z,2.93
2019-02-21T03:26:59.533Z,2.96
2019-02-21T03:27:59.519Z,3.02
2019-02-21T03:28:59.507Z,2.97
2019-02-21T03:29:59.506Z,3.05
2019-02-21T03:30:59.511Z,3.10
2019-02-21T03:31:59.517Z,3.14
2019-02-21T03:32:59.470Z,3.10
2019-02-21T03:33:59.459Z,3.03
2019-02-21T03:34:59.453Z,3.13
2019-02-21T03:35:59.462Z,3.17
2019-02-21T03:36:59.462Z,3.24
2019-02-21T03:37:59.410Z,3.26
2019-02-21T03:38:59.482Z,3.23
2019-02-21T03:39:59.416Z,3.20
2019-02-21T03:40:59.391Z,3.31
2019-02-21T03:41:59.373Z,3.29
2019-02-21T03:42:59.356Z,3.29
2019-02-21T03:43:59.346Z,3.23
2019-02-21T03:44:59.348Z,3.26
2019-02-21T03:45:59.362Z,3.23
2019-02-21T03:46:59.315Z,3.29
2019-02-21T03:47:59.301Z,3.23
2019-02-21T03:48:59.305Z,3.20
2019-02-21T03:49:59.282Z,3.31
2019-02-21T03:50:59.302Z,3.24
2019-02-21T03:51:59.261Z,3.29
2019-02-21T03:52:59.247Z,3.29
2019-02-21T03:53:59.235Z,3.39
2019-02-21T03:54:59.229Z,3.36
2019-02-21T03:55:59.213Z,3.35
2019-02-21T03:56:59.226Z,3.39
2019-02-21T03:57:59.200Z,3.48
2019-02-21T03:58:59.181Z,3.43
2019-02-21T03:59:59.197Z,3.40
2019-02-21T04:00:59.181Z,3.40
2019-02-21T04:02:05.310Z,3.39
2019-02-21T04:03:00.263Z,3.48
2019-02-21T04:03:59.144Z,3.51
2019-02-21T04:04:59.146Z,3.54
2019-02-21T04:05:59.108Z,3.43
2019-02-21T04:06:59.125Z,3.40
2019-02-21T04:07:59.080Z,3.40
2019-02-21T04:08:59.075Z,3.43
2019-02-21T04:09:59.061Z,3.45
2019-02-21T04:10:59.049Z,3.42
2019-02-21T04:11:59.042Z,3.45
2019-02-21T04:12:59.051Z,3.47
2019-02-21T04:13:59.016Z,3.40
2019-02-21T04:14:59.008Z,3.52
2019-02-21T04:15:59.002Z,3.39
2019-02-21T04:16:59.005Z,3.42
2019-02-21T04:17:58.990Z,3.36
2019-02-21T04:18:59.009Z,3.40
2019-02-21T04:19:58.965Z,3.32
2019-02-21T04:20:58.940Z,3.33
2019-02-21T04:21:58.927Z,3.31
2019-02-21T04:22:58.948Z,3.24
2019-02-21T04:23:58.930Z,3.40
2019-02-21T04:24:58.949Z,3.39
2019-02-21T04:25:58.934Z,3.42
2019-02-21T04:26:58.896Z,3.43
2019-02-21T04:27:58.878Z,3.47
2019-02-21T04:28:58.863Z,3.43
2019-02-21T04:29:58.847Z,3.42
2019-02-21T04:30:58.874Z,3.39
2019-02-21T04:31:58.820Z,3.32
2019-02-21T04:32:58.833Z,3.31
2019-02-21T04:33:58.801Z,3.33
2019-02-21T04:34:58.822Z,3.28
2019-02-21T04:35:58.779Z,3.28
2019-02-21T04:36:58.774Z,3.29
2019-02-21T04:37:58.799Z,3.29
2019-02-21T04:38:58.765Z,3.28
2019-02-21T04:39:58.746Z,3.23
2019-02-21T04:40:58.754Z,3.23
2019-02-21T04:41:58.726Z,3.31
2019-02-21T04:42:58.750Z,3.26
2019-02-21T04:43:58.694Z,3.20
2019-02-21T04:44:58.701Z,3.23
2019-02-21T04:45:58.701Z,3.20
2019-02-21T04:46:58.656Z,3.20
2019-02-21T04:47:58.661Z,3.08
2019-02-21T04:48:58.671Z,3.15
2019-02-21T04:49:58.624Z,3.13
2019-02-21T04:50:58.646Z,3.14
2019-02-21T04:51:58.616Z,3.15
2019-02-21T04:52:58.610Z,3.11
2019-02-21T04:53:58.613Z,3.08
2019-02-21T04:54:58.572Z,3.03
2019-02-21T04:55:58.573Z,2.97
2019-02-21T04:56:58.556Z,2.90
2019-02-21T04:57:58.542Z,2.95
2019-02-21T04:58:58.560Z,2.96
2019-02-21T04:59:58.529Z,2.89
2019-02-21T05:00:58.526Z,3.02
2019-02-21T05:01:58.488Z,2.85
2019-02-21T05:02:58.513Z,2.85
2019-02-21T05:03:58.488Z,2.81
2019-02-21T05:04:58.455Z,2.84
2019-02-21T05:05:58.454Z,2.81
2019-02-21T05:06:58.436Z,2.71
2019-02-21T05:07:58.435Z,2.78
2019-02-21T05:08:58.434Z,2.71
2019-02-21T05:09:58.675Z,2.60
2019-02-21T05:10:58.401Z,2.60
2019-02-21T05:11:58.386Z,2.67
2019-02-21T05:12:58.366Z,2.63
2019-02-21T05:13:58.398Z,2.66
2019-02-21T05:14:58.363Z,2.61
2019-02-21T05:15:58.340Z,2.60
2019-02-21T05:17:00.624Z,2.64
2019-02-21T05:17:58.323Z,2.69
2019-02-21T05:18:58.312Z,2.66
2019-02-21T05:19:58.307Z,2.59
2019-02-21T05:20:58.280Z,2.59
2019-02-21T05:21:58.271Z,2.53
2019-02-21T05:22:58.259Z,2.59
2019-02-21T05:23:58.260Z,2.61
2019-02-21T05:24:58.251Z,2.52
2019-02-21T05:25:58.232Z,2.48
2019-02-21T05:26:58.217Z,2.52
2019-02-21T05:27:58.204Z,2.59
2019-02-21T05:28:58.197Z,2.59
2019-02-21T05:29:58.205Z,2.60
2019-02-21T05:30:58.404Z,2.59
2019-02-21T05:31:58.159Z,2.61
2019-02-21T05:32:58.250Z,2.64
2019-02-21T05:33:58.135Z,2.59
2019-02-21T05:34:58.143Z,2.66
2019-02-21T05:35:58.128Z,2.60
2019-02-21T05:36:58.115Z,2.61
2019-02-21T05:37:58.100Z,2.57
2019-02-21T05:38:58.100Z,2.61
2019-02-21T05:39:58.099Z,2.57
2019-02-21T05:40:58.079Z,2.53
2019-02-21T05:41:58.051Z,2.49
2019-02-21T05:42:58.039Z,2.52
2019-02-21T05:43:58.041Z,2.48
2019-02-21T05:44:59.550Z,2.45
2019-02-21T05:45:58.026Z,2.46
2019-02-21T05:46:58.009Z,2.49
2019-02-21T05:48:01.026Z,2.46
2019-02-21T05:48:57.974Z,2.48
2019-02-21T05:49:57.961Z,2.52
2019-02-21T05:50:57.972Z,2.42
2019-02-21T05:51:57.939Z,2.42
2019-02-21T05:52:57.937Z,2.42
2019-02-21T05:53:57.921Z,2.54
2019-02-21T05:54:57.908Z,2.46
2019-02-21T05:55:57.918Z,2.45
2019-02-21T05:56:57.889Z,2.53
2019-02-21T05:57:57.873Z,2.45
2019-02-21T05:58:57.862Z,2.54
2019-02-21T05:59:57.856Z,2.54
2019-02-21T06:00:57.839Z,2.48
2019-02-21T06:01:57.858Z,2.49
2019-02-21T06:02:57.820Z,2.48
2019-02-21T06:03:57.812Z,2.48
2019-02-21T06:04:57.806Z,2.48
2019-02-21T06:05:57.810Z,2.48
2019-02-21T06:06:57.793Z,2.46
2019-02-21T06:07:57.770Z,2.49
2019-02-21T06:08:57.803Z,2.42
2019-02-21T06:09:57.745Z,2.49
2019-02-21T06:10:57.755Z,2.45
2019-02-21T06:11:57.725Z,2.48
2019-02-21T06:12:59.980Z,2.39
2019-02-21T06:13:57.706Z,2.41
2019-02-21T06:14:57.688Z,2.43
2019-02-21T06:15:57.694Z,2.42
2019-02-21T06:16:57.681Z,2.38
2019-02-21T06:17:57.665Z,2.36
2019-02-21T06:18:57.645Z,2.48
2019-02-21T06:19:57.646Z,2.36
2019-02-21T06:20:57.892Z,2.41
2019-02-21T06:22:09.726Z,2.41
2019-02-21T06:22:58.607Z,2.36
2019-02-21T06:23:57.623Z,2.35
2019-02-21T06:24:57.605Z,2.25
2019-02-21T06:25:59.270Z,2.21
2019-02-21T06:26:57.586Z,2.34
2019-02-21T06:27:58.542Z,2.35
2019-02-21T06:28:57.536Z,2.27
2019-02-21T06:29:57.524Z,2.24
2019-02-21T06:30:57.519Z,2.28
2019-02-21T06:31:57.568Z,2.28
2019-02-21T06:33:05.178Z,2.30
2019-02-21T06:33:58.479Z,2.27
2019-02-21T06:34:57.494Z,2.24
2019-02-21T06:35:57.459Z,2.14
2019-02-21T06:36:57.451Z,2.24
2019-02-21T06:37:57.468Z,2.21
2019-02-21T06:38:57.429Z,2.30
2019-02-21T06:39:57.423Z,2.17
2019-02-21T06:40:57.540Z,2.24
2019-02-21T06:41:59.937Z,2.25
2019-02-21T06:42:57.398Z,2.18
2019-02-21T06:43:57.377Z,2.23
2019-02-21T06:44:57.361Z,2.30
2019-02-21T06:45:58.094Z,2.30
2019-02-21T06:46:57.338Z,2.31
2019-02-21T06:47:57.341Z,2.31
2019-02-21T06:48:57.317Z,2.36
2019-02-21T06:49:58.797Z,2.36
2019-02-21T06:50:57.296Z,2.39
2019-02-21T06:51:57.285Z,2.36
2019-02-21T06:52:57.285Z,2.28
2019-02-21T06:53:57.265Z,2.23
2019-02-21T06:54:57.248Z,2.23
2019-02-21T06:55:57.242Z,2.28
2019-02-21T06:56:57.226Z,2.25
2019-02-21T06:57:57.250Z,2.24
2019-02-21T06:58:57.204Z,2.28
2019-02-21T06:59:57.194Z,2.25
2019-02-21T07:00:57.203Z,2.30
2019-02-21T07:01:57.172Z,2.38
2019-02-21T07:02:57.177Z,2.30
2019-02-21T07:03:57.155Z,2.31
2019-02-21T07:04:57.146Z,2.30
2019-02-21T07:05:57.128Z,2.28
2019-02-21T07:06:57.132Z,2.43
2019-02-21T07:07:57.130Z,2.42
2019-02-21T07:08:57.099Z,2.42
2019-02-21T07:09:57.091Z,2.43
2019-02-21T07:11:05.913Z,2.35
2019-02-21T07:11:58.078Z,2.43
2019-02-21T07:12:57.073Z,2.46
2019-02-21T07:13:57.044Z,2.49
2019-02-21T07:14:57.037Z,2.56
2019-02-21T07:15:58.544Z,2.48
2019-02-21T07:16:57.016Z,2.59
2019-02-21T07:17:57.042Z,2.54
2019-02-21T07:18:56.987Z,2.56
2019-02-21T07:19:56.977Z,2.63
2019-02-21T07:20:56.964Z,2.63
2019-02-21T07:21:56.955Z,2.60
2019-02-21T07:22:56.948Z,2.63
2019-02-21T07:23:56.958Z,2.81
2019-02-21T07:24:56.943Z,2.82
2019-02-21T07:25:56.918Z,2.89
2019-02-21T07:26:56.919Z,2.92
2019-02-21T07:27:58.335Z,2.97
2019-02-21T07:28:58.347Z,2.99
2019-02-21T07:29:56.866Z,3.02
2019-02-21T07:30:56.861Z,3.11
2019-02-21T07:31:56.852Z,3.15
2019-02-21T07:32:56.835Z,3.08
2019-02-21T07:33:56.854Z,3.24
2019-02-21T07:34:56.814Z,3.36
2019-02-21T07:35:56.816Z,3.55
2019-02-21T07:36:56.825Z,3.66
2019-02-21T07:37:56.788Z,3.65
2019-02-21T07:39:13.679Z,3.70
2019-02-21T07:39:57.756Z,3.86
2019-02-21T07:40:56.764Z,3.84
2019-02-21T07:41:56.743Z,4.02
2019-02-21T07:42:58.642Z,4.06
2019-02-21T07:43:56.740Z,4.04
2019-02-21T07:44:59.606Z,4.14
2019-02-21T07:45:56.705Z,4.20
2019-02-21T07:46:56.688Z,4.27
2019-02-21T07:47:56.683Z,4.47
2019-02-21T07:48:56.688Z,4.66
2019-02-21T07:49:56.665Z,4.55
2019-02-21T07:50:56.646Z,4.55
2019-02-21T07:51:56.630Z,4.62
2019-02-21T07:53:02.547Z,4.70
2019-02-21T07:53:57.632Z,4.60
2019-02-21T07:55:01.608Z,4.82
2019-02-21T07:55:57.581Z,4.77
2019-02-21T07:56:56.579Z,4.89
2019-02-21T07:57:56.558Z,5.00
2019-02-21T07:58:57.663Z,5.04
2019-02-21T07:59:56.567Z,5.20
2019-02-21T08:00:56.532Z,5.21
2019-02-21T08:01:56.517Z,5.17
2019-02-21T08:02:56.521Z,5.20
2019-02-21T08:03:56.492Z,5.28
2019-02-21T08:04:56.512Z,5.25
2019-02-21T08:05:56.482Z,5.28
2019-02-21T08:06:56.469Z,5.33
2019-02-21T08:07:56.454Z,5.38
2019-02-21T08:08:56.440Z,5.33
2019-02-21T08:09:56.428Z,5.38
2019-02-21T08:10:56.432Z,5.42
2019-02-21T08:11:56.412Z,5.39
2019-02-21T08:12:56.405Z,5.45
2019-02-21T08:13:56.387Z,5.43
2019-02-21T08:14:56.462Z,5.48
2019-02-21T08:15:56.386Z,5.49
2019-02-21T08:16:56.380Z,5.45
2019-02-21T08:17:56.355Z,5.58
2019-02-21T08:18:56.331Z,5.63
2019-02-21T08:20:07.496Z,5.51
2019-02-21T08:20:57.309Z,5.61
2019-02-21T08:21:56.299Z,5.60
2019-02-21T08:22:56.302Z,5.61
2019-02-21T08:23:59.035Z,5.58
2019-02-21T08:24:56.671Z,5.65
2019-02-21T08:25:56.281Z,5.63
2019-02-21T08:26:56.248Z,5.64
2019-02-21T08:27:56.232Z,5.72
2019-02-21T08:28:56.225Z,5.71
2019-02-21T08:29:56.213Z,5.82
2019-02-21T08:30:58.117Z,5.75
2019-02-21T08:31:56.185Z,5.81
2019-02-21T08:32:56.181Z,5.75
2019-02-21T08:33:58.640Z,5.81
2019-02-21T08:34:56.168Z,5.86
2019-02-21T08:35:57.812Z,5.94
2019-02-21T08:36:56.139Z,5.93
2019-02-21T08:37:56.119Z,5.93
2019-02-21T08:38:56.121Z,5.90
2019-02-21T08:39:56.098Z,5.94
2019-02-21T08:40:57.175Z,6.01
2019-02-21T08:41:56.096Z,6.01
2019-02-21T08:42:56.066Z,6.08
2019-02-21T08:43:57.431Z,6.11
2019-02-21T08:44:56.054Z,6.04
2019-02-21T08:45:57.579Z,6.17
2019-02-21T08:46:56.042Z,6.17
2019-02-21T08:47:56.010Z,6.19
2019-02-21T08:48:56.003Z,6.15
2019-02-21T08:49:55.997Z,6.28
2019-02-21T08:50:55.983Z,6.21
2019-02-21T08:51:55.990Z,6.33
2019-02-21T08:52:55.957Z,6.37
2019-02-21T08:53:55.947Z,6.43
2019-02-21T08:55:00.165Z,6.40
2019-02-21T08:55:56.150Z,6.38
2019-02-21T08:56:55.956Z,6.40
2019-02-21T08:57:55.907Z,6.41
2019-02-21T08:58:55.892Z,6.48
2019-02-21T08:59:55.879Z,6.49
2019-02-21T09:00:55.867Z,6.54
2019-02-21T09:01:55.887Z,6.56
2019-02-21T09:02:55.852Z,6.49
2019-02-21T09:03:55.849Z,6.49
2019-02-21T09:04:55.826Z,6.59
2019-02-21T09:05:55.814Z,6.58
2019-02-21T09:06:55.845Z,6.59
2019-02-21T09:07:55.791Z,6.51
2019-02-21T09:08:55.782Z,6.52
2019-02-21T09:09:55.775Z,6.59
2019-02-21T09:10:55.776Z,6.49
2019-02-21T09:11:55.752Z,6.52
2019-02-21T09:12:55.757Z,6.55
2019-02-21T09:13:55.980Z,6.52
2019-02-21T09:14:55.715Z,6.59
2019-02-21T09:15:56.055Z,6.55
2019-02-21T09:16:55.698Z,6.52
2019-02-21T09:17:55.714Z,6.58
2019-02-21T09:18:55.675Z,6.64
2019-02-21T09:19:55.665Z,6.70
2019-02-21T09:20:55.651Z,6.66
2019-02-21T09:21:55.653Z,6.71
2019-02-21T09:22:55.660Z,6.85
2019-02-21T09:23:56.687Z,6.80
2019-02-21T09:24:55.612Z,6.92
2019-02-21T09:25:55.612Z,7.02
2019-02-21T09:26:57.364Z,6.99
2019-02-21T09:27:55.592Z,6.99
2019-02-21T09:28:55.570Z,6.98
2019-02-21T09:29:55.556Z,6.98
2019-02-21T09:30:55.544Z,6.97
2019-02-21T09:31:55.533Z,6.98
2019-02-21T09:32:55.549Z,6.98
2019-02-21T09:33:55.510Z,7.06
2019-02-21T09:34:55.513Z,7.02
2019-02-21T09:35:56.851Z,7.03
2019-02-21T09:36:55.484Z,6.92
2019-02-21T09:37:55.489Z,6.95
2019-02-21T09:38:55.462Z,6.94
2019-02-21T09:39:55.451Z,7.05
2019-02-21T09:40:55.432Z,7.02
2019-02-21T09:41:55.443Z,7.02
2019-02-21T09:42:55.452Z,6.98
2019-02-21T09:43:55.418Z,7.05
2019-02-21T09:44:55.400Z,7.05
2019-02-21T09:45:55.391Z,7.15
2019-02-21T09:46:55.375Z,6.99
2019-02-21T09:47:55.368Z,7.07
2019-02-21T09:48:55.369Z,7.09
2019-02-21T09:49:56.506Z,7.06
2019-02-21T09:50:55.319Z,7.09
2019-02-21T09:51:55.331Z,7.15
2019-02-21T09:52:55.322Z,7.17
2019-02-21T09:53:55.317Z,7.09
2019-02-21T09:54:55.278Z,7.07
2019-02-21T09:55:55.275Z,7.17
2019-02-21T09:56:55.256Z,7.16
2019-02-21T09:57:55.250Z,7.16
2019-02-21T09:58:55.269Z,7.24
2019-02-21T09:59:55.223Z,7.34
2019-02-21T10:00:55.224Z,7.40
2019-02-21T10:01:57.533Z,7.40
2019-02-21T10:02:56.708Z,7.46
2019-02-21T10:03:57.273Z,7.68
2019-02-21T10:05:04.571Z,7.71
2019-02-21T10:05:56.163Z,7.87
2019-02-21T10:06:55.149Z,7.89
2019-02-21T10:07:55.134Z,7.98
2019-02-21T10:08:55.142Z,7.92
2019-02-21T10:09:55.141Z,8.00
2019-02-21T10:10:55.113Z,7.97
2019-02-21T10:11:55.092Z,8.04
2019-02-21T10:12:55.101Z,8.00
2019-02-21T10:13:55.105Z,7.97
2019-02-21T10:14:55.090Z,8.12
2019-02-21T10:15:55.053Z,8.08
2019-02-21T10:16:55.043Z,8.10
2019-02-21T10:17:55.027Z,8.11
2019-02-21T10:18:55.018Z,8.15
2019-02-21T10:19:55.023Z,8.12
2019-02-21T10:20:55.030Z,8.08
2019-02-21T10:21:54.979Z,8.10
2019-02-21T10:22:54.975Z,8.11
2019-02-21T10:23:56.739Z,8.11
2019-02-21T10:24:56.952Z,8.12
2019-02-21T10:25:54.970Z,8.10
2019-02-21T10:26:54.931Z,8.10
2019-02-21T10:27:54.917Z,8.15
2019-02-21T10:28:54.907Z,8.11
2019-02-21T10:29:54.897Z,7.98
2019-02-21T10:30:54.899Z,8.15
2019-02-21T10:31:54.871Z,8.07
2019-02-21T10:32:54.859Z,8.10
2019-02-21T10:33:54.867Z,8.10
2019-02-21T10:34:54.837Z,8.07
2019-02-21T10:35:54.849Z,8.15
2019-02-21T10:36:54.821Z,8.12
2019-02-21T10:37:54.807Z,8.12
2019-02-21T10:38:54.790Z,8.20
2019-02-21T10:39:54.780Z,8.10
2019-02-21T10:40:54.785Z,8.23
2019-02-21T10:41:54.757Z,8.28
2019-02-21T10:42:54.753Z,8.33
2019-02-21T10:43:54.740Z,8.34
2019-02-21T10:44:54.726Z,8.44
2019-02-21T10:45:54.753Z,8.56
2019-02-21T10:46:54.702Z,8.53
2019-02-21T10:47:54.692Z,8.59
2019-02-21T10:48:54.693Z,8.65
2019-02-21T10:49:54.674Z,8.61
2019-02-21T10:50:54.659Z,8.62
2019-02-21T10:51:54.670Z,8.68
2019-02-21T10:52:54.637Z,8.71
2019-02-21T10:53:54.626Z,8.65
2019-02-21T10:54:54.627Z,8.68
2019-02-21T10:55:54.606Z,8.65
2019-02-21T10:56:54.614Z,8.73
2019-02-21T10:57:54.579Z,8.74
2019-02-21T10:58:54.571Z,8.76
2019-02-21T10:59:54.564Z,8.79
2019-02-21T11:00:54.583Z,8.80
2019-02-21T11:01:54.545Z,8.86
2019-02-21T11:02:54.597Z,8.91
2019-02-21T11:03:54.528Z,8.95
2019-02-21T11:04:55.228Z,9.10
2019-02-21T11:05:54.498Z,9.18
2019-02-21T11:06:54.505Z,9.15
2019-02-21T11:07:54.475Z,9.28
2019-02-21T11:08:54.465Z,9.33
2019-02-21T11:09:54.474Z,9.50
2019-02-21T11:10:54.438Z,9.56
2019-02-21T11:11:54.447Z,9.61
2019-02-21T11:12:54.443Z,9.64
2019-02-21T11:13:54.415Z,9.64
2019-02-21T11:14:54.396Z,9.66
2019-02-21T11:15:54.396Z,9.68
2019-02-21T11:16:54.399Z,9.68
2019-02-21T11:17:54.389Z,9.75
2019-02-21T11:18:54.355Z,9.64
2019-02-21T11:19:54.340Z,9.74
2019-02-21T11:20:54.354Z,9.60
2019-02-21T11:21:54.360Z,9.68
2019-02-21T11:22:54.328Z,9.60
2019-02-21T11:23:54.303Z,9.68
2019-02-21T11:24:54.290Z,9.74
2019-02-21T11:25:54.280Z,9.69
2019-02-21T11:26:54.271Z,9.72
2019-02-21T11:27:54.290Z,9.78
2019-02-21T11:28:54.277Z,9.81
2019-02-21T11:29:54.247Z,9.75
2019-02-21T11:30:54.223Z,9.76
2019-02-21T11:31:54.215Z,9.79
2019-02-21T11:32:54.221Z,9.87
2019-02-21T11:33:54.231Z,9.83
2019-02-21T11:35:05.499Z,9.83
2019-02-21T11:35:55.174Z,9.83
2019-02-21T11:36:54.167Z,9.89
2019-02-21T11:37:54.166Z,9.83
2019-02-21T11:38:54.136Z,9.94
2019-02-21T11:39:54.121Z,9.89
2019-02-21T11:40:54.111Z,9.97
2019-02-21T11:41:54.106Z,9.97
2019-02-21T11:42:54.103Z,10.02
2019-02-21T11:43:54.083Z,9.97
2019-02-21T11:44:54.071Z,9.96
2019-02-21T11:45:57.280Z,9.94
2019-02-21T11:46:54.046Z,10.01
2019-02-21T11:47:54.049Z,10.07
2019-02-21T11:48:54.036Z,9.97
2019-02-21T11:49:54.017Z,10.02
2019-02-21T11:50:54.030Z,10.02
2019-02-21T11:51:54.024Z,10.18
2019-02-21T11:52:54.019Z,10.18
2019-02-21T11:53:53.983Z,10.27
2019-02-21T11:54:53.961Z,10.33
2019-02-21T11:55:53.947Z,10.36
2019-02-21T11:56:53.944Z,10.34
2019-02-21T11:57:53.954Z,10.36
2019-02-21T11:58:53.919Z,10.30
2019-02-21T11:59:53.907Z,10.34
2019-02-21T12:00:53.901Z,10.40
2019-02-21T12:01:53.896Z,10.40
2019-02-21T12:02:53.906Z,10.51
2019-02-21T12:03:53.867Z,10.52
2019-02-21T12:04:53.871Z,10.45
2019-02-21T12:05:53.855Z,10.51
2019-02-21T12:06:53.842Z,10.47
2019-02-21T12:07:53.815Z,10.48
2019-02-21T12:08:53.819Z,10.56
2019-02-21T12:09:53.802Z,10.60
2019-02-21T12:10:53.779Z,10.63
2019-02-21T12:11:53.784Z,10.73
2019-02-21T12:12:53.789Z,10.94
2019-02-21T12:13:53.768Z,11.00
2019-02-21T12:14:53.736Z,11.11
2019-02-21T12:15:53.725Z,11.22
2019-02-21T12:16:53.714Z,11.33
2019-02-21T12:17:53.704Z,11.60
2019-02-21T12:18:53.718Z,11.70
2019-02-21T12:19:53.712Z,11.83
2019-02-21T12:20:53.667Z,11.94
2019-02-21T12:21:59.188Z,11.95
2019-02-21T12:22:54.646Z,12.09
2019-02-21T12:23:53.654Z,12.14
2019-02-21T12:24:53.646Z,12.24
2019-02-21T12:25:53.637Z,12.23
2019-02-21T12:26:53.634Z,12.38
2019-02-21T12:27:53.591Z,12.45
2019-02-21T12:28:53.594Z,12.54
2019-02-21T12:29:53.570Z,12.70
2019-02-21T12:30:53.561Z,12.70
2019-02-21T12:31:53.551Z,12.72
2019-02-21T12:32:53.539Z,12.68
2019-02-21T12:33:53.550Z,12.65
2019-02-21T12:34:53.530Z,12.60
2019-02-21T12:35:53.515Z,12.47
2019-02-21T12:36:53.494Z,12.24
2019-02-21T12:37:53.489Z,12.31
2019-02-21T12:38:53.481Z,12.13
2019-02-21T12:39:53.491Z,12.12
2019-02-21T12:40:53.446Z,12.10
2019-02-21T12:41:53.451Z,12.23
2019-02-21T12:42:53.429Z,12.20
2019-02-21T12:43:53.414Z,12.17
2019-02-21T12:44:53.434Z,12.24
2019-02-21T12:45:53.396Z,12.41
2019-02-21T12:46:53.382Z,12.47
2019-02-21T12:47:54.209Z,12.60
2019-02-21T12:48:53.368Z,12.72
2019-02-21T12:49:55.466Z,12.79
2019-02-21T12:50:53.353Z,12.75
2019-02-21T12:51:53.338Z,12.85
2019-02-21T12:52:53.332Z,12.89
2019-02-21T12:53:53.332Z,12.74
2019-02-21T12:54:53.315Z,12.77
2019-02-21T12:55:53.312Z,12.74
2019-02-21T12:56:53.277Z,12.71
2019-02-21T12:57:53.269Z,12.74
2019-02-21T12:58:53.250Z,12.68
2019-02-21T12:59:53.239Z,12.60
2019-02-21T13:00:53.249Z,12.68
2019-02-21T13:01:53.229Z,12.72
2019-02-21T13:02:53.209Z,12.74
2019-02-21T13:03:53.206Z,12.90
2019-02-21T13:04:53.199Z,12.79
2019-02-21T13:05:53.198Z,12.95
2019-02-21T13:06:53.161Z,12.97
2019-02-21T13:07:53.160Z,12.93
2019-02-21T13:08:53.144Z,13.12
2019-02-21T13:09:53.140Z,13.15
2019-02-21T13:10:53.137Z,13.11
2019-02-21T13:11:53.111Z,13.20
2019-02-21T13:12:53.115Z,13.10
2019-02-21T13:13:53.085Z,13.01
2019-02-21T13:14:53.076Z,12.97